sensor_id;sensor_type;location;lat;lon;timestamp;P1;durP1;ratioP1;P2;durP2;ratioP2
26407;SDS011;14583;43.604;1.364;2022-12-18T00:01:43;8.27;;;7.28;;
26407;SDS011;14583;43.604;1.364;2022-12-18T00:04:14;10.20;;;8.00;;
26407;SDS011;14583;43.604;1.364;2022-12-18T00:06:46;10.15;;;7.80;;
26407;SDS011;14583;43.604;1.364;2022-12-18T00:09:11;11.73;;;8.68;;
26407;SDS011;14583;43.604;1.364;2022-12-18T00:11:37;11.32;;;7.65;;
26407;SDS011;14583;43.604;1.364;2022-12-18T00:14:03;12.90;;;8.30;;
26407;SDS011;14583;43.604;1.364;2022-12-18T00:16:29;11.10;;;8.63;;
26407;SDS011;14583;43.604;1.364;2022-12-18T00:18:58;11.02;;;9.50;;
26407;SDS011;14583;43.604;1.364;2022-12-18T00:21:24;10.63;;;8.73;;
26407;SDS011;14583;43.604;1.364;2022-12-18T00:23:50;12.20;;;9.35;;
26407;SDS011;14583;43.604;1.364;2022-12-18T00:26:18;10.90;;;8.88;;
26407;SDS011;14583;43.604;1.364;2022-12-18T00:28:45;10.90;;;9.25;;
26407;SDS011;14583;43.604;1.364;2022-12-18T00:31:16;13.23;;;9.30;;
26407;SDS011;14583;43.604;1.364;2022-12-18T00:33:46;11.15;;;8.68;;
26407;SDS011;14583;43.604;1.364;2022-12-18T00:36:13;12.20;;;9.18;;
26407;SDS011;14583;43.604;1.364;2022-12-18T00:38:56;13.00;;;9.60;;
26407;SDS011;14583;43.604;1.364;2022-12-18T00:41:23;11.30;;;9.48;;
26407;SDS011;14583;43.604;1.364;2022-12-18T00:44:08;15.65;;;10.45;;
26407;SDS011;14583;43.604;1.364;2022-12-18T00:46:36;15.35;;;10.88;;
26407;SDS011;14583;43.604;1.364;2022-12-18T00:49:02;13.93;;;9.50;;
26407;SDS011;14583;43.604;1.364;2022-12-18T00:51:28;12.48;;;10.73;;
26407;SDS011;14583;43.604;1.364;2022-12-18T00:53:54;15.10;;;9.95;;
26407;SDS011;14583;43.604;1.364;2022-12-18T00:56:20;12.00;;;9.07;;
26407;SDS011;14583;43.604;1.364;2022-12-18T00:58:46;14.30;;;9.98;;
26407;SDS011;14583;43.604;1.364;2022-12-18T01:01:12;13.65;;;9.85;;
26407;SDS011;14583;43.604;1.364;2022-12-18T01:03:38;15.10;;;10.40;;
26407;SDS011;14583;43.604;1.364;2022-12-18T01:06:07;12.95;;;10.68;;
26407;SDS011;14583;43.604;1.364;2022-12-18T01:08:34;16.67;;;10.30;;
26407;SDS011;14583;43.604;1.364;2022-12-18T01:11:01;12.75;;;10.35;;
26407;SDS011;14583;43.604;1.364;2022-12-18T01:13:36;14.57;;;10.35;;
26407;SDS011;14583;43.604;1.364;2022-12-18T01:16:02;12.68;;;9.23;;
26407;SDS011;14583;43.604;1.364;2022-12-18T01:18:28;12.35;;;10.15;;
26407;SDS011;14583;43.604;1.364;2022-12-18T01:20:54;13.43;;;9.65;;
26407;SDS011;14583;43.604;1.364;2022-12-18T01:23:19;15.27;;;9.70;;
26407;SDS011;14583;43.604;1.364;2022-12-18T01:25:45;15.45;;;10.55;;
26407;SDS011;14583;43.604;1.364;2022-12-18T01:28:11;14.77;;;10.60;;
26407;SDS011;14583;43.604;1.364;2022-12-18T01:30:36;22.33;;;13.55;;
26407;SDS011;14583;43.604;1.364;2022-12-18T01:33:04;17.98;;;13.57;;
26407;SDS011;14583;43.604;1.364;2022-12-18T01:35:30;16.33;;;13.40;;
26407;SDS011;14583;43.604;1.364;2022-12-18T01:37:56;19.40;;;13.63;;
26407;SDS011;14583;43.604;1.364;2022-12-18T01:40:22;19.40;;;14.10;;
26407;SDS011;14583;43.604;1.364;2022-12-18T01:42:51;16.75;;;13.52;;
26407;SDS011;14583;43.604;1.364;2022-12-18T01:47:53;20.50;;;13.57;;
26407;SDS011;14583;43.604;1.364;2022-12-18T01:53:00;18.15;;;14.00;;
26407;SDS011;14583;43.604;1.364;2022-12-18T01:55:28;21.02;;;14.30;;
26407;SDS011;14583;43.604;1.364;2022-12-18T01:57:57;19.67;;;14.52;;
26407;SDS011;14583;43.604;1.364;2022-12-18T02:00:24;22.92;;;15.45;;
26407;SDS011;14583;43.604;1.364;2022-12-18T02:02:51;22.85;;;15.25;;
26407;SDS011;14583;43.604;1.364;2022-12-18T02:05:18;21.42;;;15.30;;
26407;SDS011;14583;43.604;1.364;2022-12-18T02:13:14;24.70;;;14.70;;
26407;SDS011;14583;43.604;1.364;2022-12-18T02:16:37;24.23;;;15.50;;
26407;SDS011;14583;43.604;1.364;2022-12-18T02:18:59;23.20;;;15.02;;
26407;SDS011;14583;43.604;1.364;2022-12-18T02:26:50;20.27;;;14.35;;
26407;SDS011;14583;43.604;1.364;2022-12-18T02:29:22;21.55;;;14.40;;
26407;SDS011;14583;43.604;1.364;2022-12-18T02:31:53;21.13;;;15.20;;
26407;SDS011;14583;43.604;1.364;2022-12-18T02:34:22;24.70;;;14.98;;
26407;SDS011;14583;43.604;1.364;2022-12-18T02:36:52;21.88;;;14.93;;
26407;SDS011;14583;43.604;1.364;2022-12-18T02:39:18;20.23;;;14.70;;
26407;SDS011;14583;43.604;1.364;2022-12-18T02:41:47;22.95;;;16.23;;
26407;SDS011;14583;43.604;1.364;2022-12-18T02:44:13;20.63;;;15.25;;
26407;SDS011;14583;43.604;1.364;2022-12-18T02:51:50;23.10;;;16.00;;
26407;SDS011;14583;43.604;1.364;2022-12-18T02:54:39;19.88;;;14.77;;
26407;SDS011;14583;43.604;1.364;2022-12-18T02:57:21;21.00;;;15.30;;
26407;SDS011;14583;43.604;1.364;2022-12-18T03:02:42;26.13;;;16.65;;
26407;SDS011;14583;43.604;1.364;2022-12-18T03:05:30;23.80;;;15.85;;
26407;SDS011;14583;43.604;1.364;2022-12-18T03:08:04;23.20;;;15.68;;
26407;SDS011;14583;43.604;1.364;2022-12-18T03:10:39;26.20;;;16.15;;
26407;SDS011;14583;43.604;1.364;2022-12-18T03:13:14;33.30;;;14.73;;
26407;SDS011;14583;43.604;1.364;2022-12-18T03:15:49;20.35;;;13.98;;
26407;SDS011;14583;43.604;1.364;2022-12-18T03:18:33;18.80;;;13.65;;
26407;SDS011;14583;43.604;1.364;2022-12-18T03:21:07;21.65;;;15.27;;
26407;SDS011;14583;43.604;1.364;2022-12-18T03:23:43;20.40;;;14.07;;
26407;SDS011;14583;43.604;1.364;2022-12-18T03:26:13;20.42;;;15.23;;
26407;SDS011;14583;43.604;1.364;2022-12-18T03:28:43;19.15;;;14.07;;
26407;SDS011;14583;43.604;1.364;2022-12-18T03:31:12;18.75;;;14.40;;
26407;SDS011;14583;43.604;1.364;2022-12-18T03:36:19;19.42;;;14.52;;
26407;SDS011;14583;43.604;1.364;2022-12-18T03:38:44;19.88;;;15.77;;
26407;SDS011;14583;43.604;1.364;2022-12-18T03:41:18;21.50;;;14.93;;
26407;SDS011;14583;43.604;1.364;2022-12-18T03:43:52;21.42;;;15.52;;
26407;SDS011;14583;43.604;1.364;2022-12-18T03:46:47;21.50;;;15.10;;
26407;SDS011;14583;43.604;1.364;2022-12-18T03:52:05;22.75;;;16.02;;
26407;SDS011;14583;43.604;1.364;2022-12-18T03:54:32;20.55;;;15.75;;
26407;SDS011;14583;43.604;1.364;2022-12-18T03:57:06;18.73;;;14.80;;
26407;SDS011;14583;43.604;1.364;2022-12-18T03:59:37;18.27;;;14.48;;
26407;SDS011;14583;43.604;1.364;2022-12-18T04:02:04;21.98;;;15.05;;
26407;SDS011;14583;43.604;1.364;2022-12-18T04:04:33;22.85;;;15.52;;
26407;SDS011;14583;43.604;1.364;2022-12-18T04:07:02;21.23;;;15.30;;
26407;SDS011;14583;43.604;1.364;2022-12-18T04:09:30;23.00;;;15.15;;
26407;SDS011;14583;43.604;1.364;2022-12-18T04:11:58;20.52;;;14.57;;
26407;SDS011;14583;43.604;1.364;2022-12-18T04:14:24;20.17;;;14.43;;
26407;SDS011;14583;43.604;1.364;2022-12-18T04:16:49;18.33;;;14.13;;
26407;SDS011;14583;43.604;1.364;2022-12-18T04:19:15;20.48;;;15.57;;
26407;SDS011;14583;43.604;1.364;2022-12-18T04:21:41;18.48;;;13.10;;
26407;SDS011;14583;43.604;1.364;2022-12-18T04:24:07;20.10;;;14.75;;
26407;SDS011;14583;43.604;1.364;2022-12-18T04:26:33;19.60;;;13.40;;
26407;SDS011;14583;43.604;1.364;2022-12-18T04:28:59;19.02;;;13.95;;
26407;SDS011;14583;43.604;1.364;2022-12-18T04:31:24;16.98;;;13.32;;
26407;SDS011;14583;43.604;1.364;2022-12-18T04:33:51;17.42;;;13.15;;
26407;SDS011;14583;43.604;1.364;2022-12-18T04:36:16;17.52;;;13.20;;
26407;SDS011;14583;43.604;1.364;2022-12-18T04:38:42;16.58;;;12.88;;
26407;SDS011;14583;43.604;1.364;2022-12-18T04:41:08;21.92;;;12.63;;
26407;SDS011;14583;43.604;1.364;2022-12-18T04:43:33;17.25;;;12.75;;
26407;SDS011;14583;43.604;1.364;2022-12-18T04:46:03;17.50;;;12.93;;
26407;SDS011;14583;43.604;1.364;2022-12-18T04:48:29;17.50;;;13.02;;
26407;SDS011;14583;43.604;1.364;2022-12-18T04:50:55;19.60;;;12.85;;
26407;SDS011;14583;43.604;1.364;2022-12-18T04:53:21;16.02;;;12.13;;
26407;SDS011;14583;43.604;1.364;2022-12-18T04:55:46;17.33;;;12.88;;
26407;SDS011;14583;43.604;1.364;2022-12-18T04:58:12;18.98;;;12.90;;
26407;SDS011;14583;43.604;1.364;2022-12-18T05:00:38;17.80;;;13.48;;
26407;SDS011;14583;43.604;1.364;2022-12-18T05:03:03;17.20;;;12.18;;
26407;SDS011;14583;43.604;1.364;2022-12-18T05:05:29;16.30;;;12.82;;
26407;SDS011;14583;43.604;1.364;2022-12-18T05:07:55;16.33;;;13.10;;
26407;SDS011;14583;43.604;1.364;2022-12-18T05:10:20;16.48;;;12.27;;
26407;SDS011;14583;43.604;1.364;2022-12-18T05:12:46;18.35;;;12.73;;
26407;SDS011;14583;43.604;1.364;2022-12-18T05:15:26;15.50;;;12.60;;
26407;SDS011;14583;43.604;1.364;2022-12-18T05:17:57;19.20;;;13.02;;
26407;SDS011;14583;43.604;1.364;2022-12-18T05:20:23;18.50;;;13.48;;
26407;SDS011;14583;43.604;1.364;2022-12-18T05:22:50;17.77;;;12.10;;
26407;SDS011;14583;43.604;1.364;2022-12-18T05:25:16;16.45;;;12.38;;
26407;SDS011;14583;43.604;1.364;2022-12-18T05:27:42;17.27;;;13.00;;
26407;SDS011;14583;43.604;1.364;2022-12-18T05:30:08;17.42;;;12.50;;
26407;SDS011;14583;43.604;1.364;2022-12-18T05:32:35;18.50;;;13.90;;
26407;SDS011;14583;43.604;1.364;2022-12-18T05:35:01;18.65;;;12.75;;
26407;SDS011;14583;43.604;1.364;2022-12-18T05:37:26;17.15;;;12.55;;
26407;SDS011;14583;43.604;1.364;2022-12-18T05:39:52;18.88;;;13.70;;
26407;SDS011;14583;43.604;1.364;2022-12-18T05:42:17;18.20;;;13.02;;
26407;SDS011;14583;43.604;1.364;2022-12-18T05:44:43;14.80;;;12.02;;
26407;SDS011;14583;43.604;1.364;2022-12-18T05:47:09;18.85;;;13.10;;
26407;SDS011;14583;43.604;1.364;2022-12-18T05:49:34;15.95;;;12.38;;
26407;SDS011;14583;43.604;1.364;2022-12-18T05:52:00;17.70;;;11.98;;
26407;SDS011;14583;43.604;1.364;2022-12-18T05:54:26;16.42;;;12.20;;
26407;SDS011;14583;43.604;1.364;2022-12-18T05:56:53;19.13;;;12.23;;
26407;SDS011;14583;43.604;1.364;2022-12-18T05:59:19;17.05;;;12.18;;
26407;SDS011;14583;43.604;1.364;2022-12-18T06:01:45;15.85;;;12.40;;
26407;SDS011;14583;43.604;1.364;2022-12-18T06:04:11;18.35;;;12.50;;
26407;SDS011;14583;43.604;1.364;2022-12-18T06:06:37;17.65;;;12.70;;
26407;SDS011;14583;43.604;1.364;2022-12-18T06:09:03;18.33;;;12.90;;
26407;SDS011;14583;43.604;1.364;2022-12-18T06:11:33;17.30;;;12.20;;
26407;SDS011;14583;43.604;1.364;2022-12-18T06:14:00;17.80;;;11.55;;
26407;SDS011;14583;43.604;1.364;2022-12-18T06:16:28;19.05;;;11.93;;
26407;SDS011;14583;43.604;1.364;2022-12-18T06:18:57;17.52;;;12.68;;
26407;SDS011;14583;43.604;1.364;2022-12-18T06:21:24;20.48;;;13.55;;
26407;SDS011;14583;43.604;1.364;2022-12-18T06:23:50;19.48;;;13.98;;
26407;SDS011;14583;43.604;1.364;2022-12-18T06:26:16;16.85;;;13.02;;
26407;SDS011;14583;43.604;1.364;2022-12-18T06:28:42;17.23;;;13.20;;
26407;SDS011;14583;43.604;1.364;2022-12-18T06:31:08;18.73;;;14.10;;
26407;SDS011;14583;43.604;1.364;2022-12-18T06:33:34;20.88;;;13.75;;
26407;SDS011;14583;43.604;1.364;2022-12-18T06:36:01;19.48;;;14.35;;
26407;SDS011;14583;43.604;1.364;2022-12-18T06:38:28;18.88;;;13.50;;
26407;SDS011;14583;43.604;1.364;2022-12-18T06:40:55;18.48;;;13.52;;
26407;SDS011;14583;43.604;1.364;2022-12-18T06:43:21;19.85;;;14.32;;
26407;SDS011;14583;43.604;1.364;2022-12-18T06:45:47;18.63;;;14.85;;
26407;SDS011;14583;43.604;1.364;2022-12-18T06:48:17;20.05;;;15.20;;
26407;SDS011;14583;43.604;1.364;2022-12-18T06:50:47;21.45;;;14.88;;
26407;SDS011;14583;43.604;1.364;2022-12-18T06:53:12;18.73;;;15.23;;
26407;SDS011;14583;43.604;1.364;2022-12-18T06:55:38;18.52;;;13.55;;
26407;SDS011;14583;43.604;1.364;2022-12-18T06:58:04;18.17;;;14.00;;
26407;SDS011;14583;43.604;1.364;2022-12-18T07:00:30;20.65;;;14.63;;
26407;SDS011;14583;43.604;1.364;2022-12-18T07:02:55;21.42;;;13.60;;
26407;SDS011;14583;43.604;1.364;2022-12-18T07:05:21;24.77;;;13.10;;
26407;SDS011;14583;43.604;1.364;2022-12-18T07:07:47;23.27;;;14.52;;
26407;SDS011;14583;43.604;1.364;2022-12-18T07:10:12;20.23;;;14.35;;
26407;SDS011;14583;43.604;1.364;2022-12-18T07:12:38;18.35;;;14.00;;
26407;SDS011;14583;43.604;1.364;2022-12-18T07:15:04;18.92;;;13.32;;
26407;SDS011;14583;43.604;1.364;2022-12-18T07:17:30;17.20;;;10.90;;
26407;SDS011;14583;43.604;1.364;2022-12-18T07:19:55;14.68;;;10.13;;
26407;SDS011;14583;43.604;1.364;2022-12-18T07:22:21;14.30;;;9.77;;
26407;SDS011;14583;43.604;1.364;2022-12-18T07:24:47;16.60;;;10.35;;
26407;SDS011;14583;43.604;1.364;2022-12-18T07:27:12;18.88;;;12.70;;
26407;SDS011;14583;43.604;1.364;2022-12-18T07:29:38;15.80;;;11.63;;
26407;SDS011;14583;43.604;1.364;2022-12-18T07:32:04;18.45;;;11.68;;
26407;SDS011;14583;43.604;1.364;2022-12-18T07:34:29;17.77;;;13.35;;
26407;SDS011;14583;43.604;1.364;2022-12-18T07:36:55;19.27;;;13.13;;
26407;SDS011;14583;43.604;1.364;2022-12-18T07:39:21;18.55;;;13.13;;
26407;SDS011;14583;43.604;1.364;2022-12-18T07:41:47;24.00;;;12.77;;
26407;SDS011;14583;43.604;1.364;2022-12-18T07:44:32;16.55;;;11.98;;
26407;SDS011;14583;43.604;1.364;2022-12-18T07:46:58;20.48;;;11.90;;
26407;SDS011;14583;43.604;1.364;2022-12-18T07:49:24;20.83;;;13.02;;
26407;SDS011;14583;43.604;1.364;2022-12-18T07:51:49;15.45;;;12.75;;
26407;SDS011;14583;43.604;1.364;2022-12-18T07:54:15;18.92;;;11.75;;
26407;SDS011;14583;43.604;1.364;2022-12-18T07:56:41;16.55;;;12.27;;
26407;SDS011;14583;43.604;1.364;2022-12-18T07:59:06;18.02;;;10.82;;
26407;SDS011;14583;43.604;1.364;2022-12-18T08:01:32;14.27;;;10.27;;
26407;SDS011;14583;43.604;1.364;2022-12-18T08:03:58;16.17;;;10.10;;
26407;SDS011;14583;43.604;1.364;2022-12-18T08:06:24;15.20;;;9.88;;
26407;SDS011;14583;43.604;1.364;2022-12-18T08:08:53;12.73;;;9.80;;
26407;SDS011;14583;43.604;1.364;2022-12-18T08:11:20;19.90;;;9.60;;
26407;SDS011;14583;43.604;1.364;2022-12-18T08:13:46;14.45;;;9.05;;
26407;SDS011;14583;43.604;1.364;2022-12-18T08:16:12;12.98;;;9.40;;
26407;SDS011;14583;43.604;1.364;2022-12-18T08:18:38;12.98;;;8.38;;
26407;SDS011;14583;43.604;1.364;2022-12-18T08:21:07;13.80;;;9.32;;
26407;SDS011;14583;43.604;1.364;2022-12-18T08:23:35;14.20;;;9.48;;
26407;SDS011;14583;43.604;1.364;2022-12-18T08:26:01;13.52;;;8.32;;
26407;SDS011;14583;43.604;1.364;2022-12-18T08:28:26;11.93;;;8.60;;
26407;SDS011;14583;43.604;1.364;2022-12-18T08:30:52;15.65;;;8.88;;
26407;SDS011;14583;43.604;1.364;2022-12-18T08:33:18;14.60;;;8.25;;
26407;SDS011;14583;43.604;1.364;2022-12-18T08:35:44;12.75;;;8.63;;
26407;SDS011;14583;43.604;1.364;2022-12-18T08:38:09;12.95;;;8.85;;
26407;SDS011;14583;43.604;1.364;2022-12-18T08:40:35;12.85;;;8.23;;
26407;SDS011;14583;43.604;1.364;2022-12-18T08:43:01;15.25;;;8.85;;
26407;SDS011;14583;43.604;1.364;2022-12-18T08:45:45;13.07;;;8.07;;
26407;SDS011;14583;43.604;1.364;2022-12-18T08:48:10;11.73;;;8.55;;
26407;SDS011;14583;43.604;1.364;2022-12-18T08:50:36;17.52;;;9.60;;
26407;SDS011;14583;43.604;1.364;2022-12-18T08:53:02;15.38;;;9.30;;
26407;SDS011;14583;43.604;1.364;2022-12-18T08:55:28;14.88;;;9.57;;
26407;SDS011;14583;43.604;1.364;2022-12-18T08:57:53;14.57;;;8.73;;
26407;SDS011;14583;43.604;1.364;2022-12-18T09:00:19;11.38;;;8.70;;
26407;SDS011;14583;43.604;1.364;2022-12-18T09:02:45;13.20;;;8.40;;
26407;SDS011;14583;43.604;1.364;2022-12-18T09:05:10;15.60;;;9.13;;
26407;SDS011;14583;43.604;1.364;2022-12-18T09:07:36;9.98;;;8.10;;
26407;SDS011;14583;43.604;1.364;2022-12-18T09:10:02;14.30;;;8.70;;
26407;SDS011;14583;43.604;1.364;2022-12-18T09:12:28;12.43;;;8.35;;
26407;SDS011;14583;43.604;1.364;2022-12-18T09:14:54;10.90;;;8.95;;
26407;SDS011;14583;43.604;1.364;2022-12-18T09:17:21;11.85;;;8.45;;
26407;SDS011;14583;43.604;1.364;2022-12-18T09:19:47;16.73;;;8.23;;
26407;SDS011;14583;43.604;1.364;2022-12-18T09:22:12;15.85;;;9.73;;
26407;SDS011;14583;43.604;1.364;2022-12-18T09:24:38;10.52;;;7.95;;
26407;SDS011;14583;43.604;1.364;2022-12-18T09:27:04;13.13;;;9.57;;
26407;SDS011;14583;43.604;1.364;2022-12-18T09:29:29;13.05;;;8.07;;
26407;SDS011;14583;43.604;1.364;2022-12-18T09:31:55;13.60;;;8.25;;
26407;SDS011;14583;43.604;1.364;2022-12-18T09:34:21;12.15;;;8.38;;
26407;SDS011;14583;43.604;1.364;2022-12-18T09:36:47;19.55;;;12.05;;
26407;SDS011;14583;43.604;1.364;2022-12-18T09:39:13;12.35;;;8.02;;
26407;SDS011;14583;43.604;1.364;2022-12-18T09:41:41;14.57;;;8.48;;
26407;SDS011;14583;43.604;1.364;2022-12-18T09:49:30;11.50;;;7.68;;
26407;SDS011;14583;43.604;1.364;2022-12-18T09:52:02;14.40;;;8.57;;
26407;SDS011;14583;43.604;1.364;2022-12-18T09:54:44;14.20;;;8.50;;
26407;SDS011;14583;43.604;1.364;2022-12-18T09:57:23;18.88;;;8.55;;
26407;SDS011;14583;43.604;1.364;2022-12-18T09:59:54;12.50;;;8.18;;
26407;SDS011;14583;43.604;1.364;2022-12-18T10:02:30;10.85;;;7.05;;
26407;SDS011;14583;43.604;1.364;2022-12-18T10:10:12;16.60;;;8.38;;
26407;SDS011;14583;43.604;1.364;2022-12-18T10:12:51;13.95;;;8.20;;
26407;SDS011;14583;43.604;1.364;2022-12-18T10:21:30;15.10;;;7.38;;
26407;SDS011;14583;43.604;1.364;2022-12-18T10:26:37;11.55;;;7.25;;
26407;SDS011;14583;43.604;1.364;2022-12-18T10:29:06;9.52;;;6.93;;
26407;SDS011;14583;43.604;1.364;2022-12-18T10:31:37;12.85;;;6.72;;
26407;SDS011;14583;43.604;1.364;2022-12-18T10:34:03;11.18;;;6.18;;
26407;SDS011;14583;43.604;1.364;2022-12-18T10:36:28;12.52;;;6.40;;
26407;SDS011;14583;43.604;1.364;2022-12-18T10:38:57;10.73;;;6.00;;
26407;SDS011;14583;43.604;1.364;2022-12-18T10:41:40;8.90;;;5.35;;
26407;SDS011;14583;43.604;1.364;2022-12-18T10:44:40;9.38;;;6.47;;
26407;SDS011;14583;43.604;1.364;2022-12-18T10:47:02;11.80;;;6.15;;
26407;SDS011;14583;43.604;1.364;2022-12-18T10:49:30;8.57;;;6.15;;
26407;SDS011;14583;43.604;1.364;2022-12-18T10:54:57;9.57;;;5.55;;
26407;SDS011;14583;43.604;1.364;2022-12-18T10:59:57;8.45;;;5.93;;
26407;SDS011;14583;43.604;1.364;2022-12-18T11:02:43;11.75;;;5.53;;
26407;SDS011;14583;43.604;1.364;2022-12-18T11:05:25;9.23;;;5.40;;
26407;SDS011;14583;43.604;1.364;2022-12-18T11:07:52;6.78;;;5.13;;
26407;SDS011;14583;43.604;1.364;2022-12-18T11:10:23;9.18;;;5.45;;
26407;SDS011;14583;43.604;1.364;2022-12-18T11:12:55;11.13;;;5.85;;
26407;SDS011;14583;43.604;1.364;2022-12-18T11:15:33;19.50;;;8.60;;
26407;SDS011;14583;43.604;1.364;2022-12-18T11:17:59;17.00;;;7.75;;
26407;SDS011;14583;43.604;1.364;2022-12-18T11:20:34;9.48;;;5.97;;
26407;SDS011;14583;43.604;1.364;2022-12-18T11:23:03;9.98;;;5.30;;
26407;SDS011;14583;43.604;1.364;2022-12-18T11:25:31;14.43;;;5.97;;
26407;SDS011;14583;43.604;1.364;2022-12-18T11:28:02;12.93;;;5.75;;
26407;SDS011;14583;43.604;1.364;2022-12-18T11:30:31;9.40;;;5.50;;
26407;SDS011;14583;43.604;1.364;2022-12-18T11:33:03;6.63;;;5.15;;
26407;SDS011;14583;43.604;1.364;2022-12-18T11:43:54;11.80;;;5.50;;
26407;SDS011;14583;43.604;1.364;2022-12-18T11:46:25;8.52;;;5.00;;
26407;SDS011;14583;43.604;1.364;2022-12-18T11:54:34;6.60;;;5.13;;
26407;SDS011;14583;43.604;1.364;2022-12-18T12:00:20;8.57;;;4.60;;
26407;SDS011;14583;43.604;1.364;2022-12-18T12:08:34;9.95;;;5.47;;
26407;SDS011;14583;43.604;1.364;2022-12-18T12:14:05;8.68;;;4.80;;
26407;SDS011;14583;43.604;1.364;2022-12-18T12:19:45;9.10;;;4.70;;
26407;SDS011;14583;43.604;1.364;2022-12-18T12:38:41;7.75;;;5.15;;
26407;SDS011;14583;43.604;1.364;2022-12-18T12:41:12;7.45;;;5.47;;
26407;SDS011;14583;43.604;1.364;2022-12-18T12:43:58;10.07;;;5.55;;
26407;SDS011;14583;43.604;1.364;2022-12-18T12:46:27;10.43;;;6.05;;
26407;SDS011;14583;43.604;1.364;2022-12-18T12:49:19;11.18;;;5.90;;
26407;SDS011;14583;43.604;1.364;2022-12-18T12:51:47;12.35;;;6.00;;
26407;SDS011;14583;43.604;1.364;2022-12-18T12:54:23;10.45;;;5.43;;
26407;SDS011;14583;43.604;1.364;2022-12-18T12:59:28;9.30;;;5.30;;
26407;SDS011;14583;43.604;1.364;2022-12-18T13:02:10;8.35;;;5.57;;
26407;SDS011;14583;43.604;1.364;2022-12-18T13:04:52;8.93;;;5.68;;
26407;SDS011;14583;43.604;1.364;2022-12-18T13:07:45;8.75;;;5.63;;
26407;SDS011;14583;43.604;1.364;2022-12-18T13:15:41;12.77;;;5.68;;
26407;SDS011;14583;43.604;1.364;2022-12-18T13:20:53;9.88;;;6.00;;
26407;SDS011;14583;43.604;1.364;2022-12-18T13:23:35;7.90;;;5.72;;
26407;SDS011;14583;43.604;1.364;2022-12-18T13:31:11;10.95;;;5.95;;
26407;SDS011;14583;43.604;1.364;2022-12-18T13:34:17;11.63;;;6.20;;
26407;SDS011;14583;43.604;1.364;2022-12-18T13:36:43;11.00;;;6.15;;
26407;SDS011;14583;43.604;1.364;2022-12-18T13:39:20;12.48;;;6.10;;
26407;SDS011;14583;43.604;1.364;2022-12-18T13:41:53;8.00;;;5.90;;
26407;SDS011;14583;43.604;1.364;2022-12-18T13:44:58;11.07;;;5.93;;
26407;SDS011;14583;43.604;1.364;2022-12-18T13:49:53;9.73;;;5.97;;
26407;SDS011;14583;43.604;1.364;2022-12-18T13:52:24;8.40;;;5.55;;
26407;SDS011;14583;43.604;1.364;2022-12-18T13:54:55;14.47;;;5.90;;
26407;SDS011;14583;43.604;1.364;2022-12-18T13:57:32;8.48;;;5.90;;
26407;SDS011;14583;43.604;1.364;2022-12-18T14:02:50;9.38;;;6.28;;
26407;SDS011;14583;43.604;1.364;2022-12-18T14:08:03;11.88;;;6.25;;
26407;SDS011;14583;43.604;1.364;2022-12-18T14:10:33;8.95;;;6.22;;
26407;SDS011;14583;43.604;1.364;2022-12-18T14:13:02;11.50;;;6.47;;
26407;SDS011;14583;43.604;1.364;2022-12-18T14:15:32;12.77;;;6.55;;
26407;SDS011;14583;43.604;1.364;2022-12-18T14:18:24;11.55;;;6.43;;
26407;SDS011;14583;43.604;1.364;2022-12-18T14:21:21;11.45;;;6.45;;
26407;SDS011;14583;43.604;1.364;2022-12-18T14:24:02;6.63;;;5.35;;
26407;SDS011;14583;43.604;1.364;2022-12-18T14:26:39;9.77;;;6.00;;
26407;SDS011;14583;43.604;1.364;2022-12-18T14:29:24;8.70;;;4.78;;
26407;SDS011;14583;43.604;1.364;2022-12-18T14:32:10;7.22;;;5.10;;
26407;SDS011;14583;43.604;1.364;2022-12-18T14:34:36;9.25;;;5.18;;
26407;SDS011;14583;43.604;1.364;2022-12-18T14:37:02;6.85;;;5.50;;
26407;SDS011;14583;43.604;1.364;2022-12-18T14:39:28;6.50;;;4.85;;
26407;SDS011;14583;43.604;1.364;2022-12-18T14:41:54;7.43;;;4.75;;
26407;SDS011;14583;43.604;1.364;2022-12-18T14:44:19;8.73;;;4.80;;
26407;SDS011;14583;43.604;1.364;2022-12-18T14:46:46;6.70;;;4.53;;
26407;SDS011;14583;43.604;1.364;2022-12-18T14:51:55;10.05;;;5.20;;
26407;SDS011;14583;43.604;1.364;2022-12-18T14:54:23;8.70;;;5.18;;
26407;SDS011;14583;43.604;1.364;2022-12-18T14:59:46;7.47;;;5.18;;
26407;SDS011;14583;43.604;1.364;2022-12-18T15:04:48;7.18;;;4.78;;
26407;SDS011;14583;43.604;1.364;2022-12-18T15:07:26;6.45;;;4.53;;
26407;SDS011;14583;43.604;1.364;2022-12-18T15:12:37;9.98;;;4.90;;
26407;SDS011;14583;43.604;1.364;2022-12-18T15:17:58;7.38;;;5.13;;
26407;SDS011;14583;43.604;1.364;2022-12-18T15:20:23;8.93;;;5.80;;
26407;SDS011;14583;43.604;1.364;2022-12-18T15:22:49;7.95;;;4.68;;
26407;SDS011;14583;43.604;1.364;2022-12-18T15:25:27;9.02;;;5.30;;
26407;SDS011;14583;43.604;1.364;2022-12-18T15:28:04;10.73;;;5.45;;
26407;SDS011;14583;43.604;1.364;2022-12-18T15:33:39;10.55;;;5.20;;
26407;SDS011;14583;43.604;1.364;2022-12-18T15:36:18;10.90;;;5.57;;
26407;SDS011;14583;43.604;1.364;2022-12-18T15:38:48;9.38;;;4.88;;
26407;SDS011;14583;43.604;1.364;2022-12-18T15:41:16;10.23;;;5.32;;
26407;SDS011;14583;43.604;1.364;2022-12-18T15:43:46;8.68;;;5.63;;
26407;SDS011;14583;43.604;1.364;2022-12-18T15:46:17;8.30;;;5.55;;
26407;SDS011;14583;43.604;1.364;2022-12-18T15:48:45;6.72;;;5.15;;
26407;SDS011;14583;43.604;1.364;2022-12-18T15:51:14;9.50;;;5.50;;
26407;SDS011;14583;43.604;1.364;2022-12-18T15:54:00;10.60;;;6.03;;
26407;SDS011;14583;43.604;1.364;2022-12-18T15:56:31;12.23;;;6.05;;
26407;SDS011;14583;43.604;1.364;2022-12-18T15:59:16;10.35;;;5.88;;
26407;SDS011;14583;43.604;1.364;2022-12-18T16:01:44;12.55;;;6.20;;
26407;SDS011;14583;43.604;1.364;2022-12-18T16:04:15;11.15;;;5.90;;
26407;SDS011;14583;43.604;1.364;2022-12-18T16:06:45;8.57;;;5.85;;
26407;SDS011;14583;43.604;1.364;2022-12-18T16:09:10;11.60;;;5.88;;
26407;SDS011;14583;43.604;1.364;2022-12-18T16:11:36;12.95;;;6.70;;
26407;SDS011;14583;43.604;1.364;2022-12-18T16:14:08;11.95;;;5.65;;
26407;SDS011;14583;43.604;1.364;2022-12-18T16:16:46;12.73;;;6.18;;
26407;SDS011;14583;43.604;1.364;2022-12-18T16:19:15;9.57;;;5.43;;
26407;SDS011;14583;43.604;1.364;2022-12-18T16:21:41;12.95;;;6.25;;
26407;SDS011;14583;43.604;1.364;2022-12-18T16:24:29;13.80;;;5.88;;
26407;SDS011;14583;43.604;1.364;2022-12-18T16:26:55;13.43;;;6.45;;
26407;SDS011;14583;43.604;1.364;2022-12-18T16:29:25;16.20;;;6.10;;
26407;SDS011;14583;43.604;1.364;2022-12-18T16:31:55;10.98;;;6.63;;
26407;SDS011;14583;43.604;1.364;2022-12-18T16:34:26;11.27;;;6.75;;
26407;SDS011;14583;43.604;1.364;2022-12-18T16:37:03;14.90;;;6.75;;
26407;SDS011;14583;43.604;1.364;2022-12-18T16:39:29;16.85;;;6.38;;
26407;SDS011;14583;43.604;1.364;2022-12-18T16:41:56;18.33;;;6.72;;
26407;SDS011;14583;43.604;1.364;2022-12-18T16:44:22;13.23;;;6.90;;
26407;SDS011;14583;43.604;1.364;2022-12-18T16:46:48;13.25;;;6.90;;
26407;SDS011;14583;43.604;1.364;2022-12-18T16:49:14;13.63;;;6.20;;
26407;SDS011;14583;43.604;1.364;2022-12-18T16:51:41;18.63;;;6.82;;
26407;SDS011;14583;43.604;1.364;2022-12-18T16:54:07;12.80;;;7.15;;
26407;SDS011;14583;43.604;1.364;2022-12-18T16:56:33;15.23;;;6.35;;
26407;SDS011;14583;43.604;1.364;2022-12-18T16:58:59;20.10;;;7.60;;
26407;SDS011;14583;43.604;1.364;2022-12-18T17:01:27;14.00;;;7.45;;
26407;SDS011;14583;43.604;1.364;2022-12-18T17:03:55;12.68;;;6.65;;
26407;SDS011;14583;43.604;1.364;2022-12-18T17:06:23;14.65;;;7.47;;